createdAt,value
2018-12-22T00:02:45.911Z,9.40
2018-12-22T00:07:49.395Z,9.40
2018-12-22T00:12:52.875Z,9.40
2018-12-22T00:17:56.353Z,9.40
2018-12-22T00:23:00.037Z,9.40
2018-12-22T00:28:03.662Z,9.40
2018-12-22T00:33:07.131Z,9.40
2018-12-22T00:38:10.601Z,9.50
2018-12-22T00:43:14.805Z,9.50
2018-12-22T00:48:18.291Z,9.50
2018-12-22T00:53:21.952Z,9.60
2018-12-22T00:58:30.667Z,9.50
2018-12-22T01:03:31.659Z,9.50
2018-12-22T01:08:36.724Z,9.50
2018-12-22T01:13:40.624Z,9.60
2018-12-22T01:18:44.936Z,9.60
2018-12-22T01:23:48.461Z,9.50
2018-12-22T01:28:51.937Z,9.50
2018-12-22T01:33:55.710Z,9.60
2018-12-22T01:38:59.715Z,9.60
2018-12-22T01:44:04.124Z,9.60
2018-12-22T01:49:08.019Z,9.50
2018-12-22T01:54:12.353Z,9.50
2018-12-22T01:59:16.023Z,9.50
2018-12-22T02:04:20.221Z,9.50
2018-12-22T02:09:24.529Z,9.60
2018-12-22T02:14:28.159Z,9.60
2018-12-22T02:19:31.637Z,9.60
2018-12-22T02:24:35.114Z,9.60
2018-12-22T02:29:38.582Z,9.60
2018-12-22T02:34:42.198Z,9.60
2018-12-22T02:39:45.896Z,9.60
2018-12-22T02:44:49.645Z,9.60
2018-12-22T02:49:53.120Z,9.70
2018-12-22T02:54:56.587Z,9.70
2018-12-22T03:00:00.056Z,9.80
2018-12-22T03:05:03.606Z,9.80
2018-12-22T03:10:07.114Z,9.80
2018-12-22T03:15:10.609Z,9.90
2018-12-22T03:20:14.123Z,10.00
2018-12-22T03:25:17.662Z,10.00
2018-12-22T03:30:21.120Z,10.10
2018-12-22T03:35:24.603Z,10.00
2018-12-22T03:40:28.078Z,10.20
2018-12-22T03:45:31.544Z,10.00
2018-12-22T03:50:35.154Z,9.90
2018-12-22T03:55:38.605Z,9.80
2018-12-22T04:00:42.073Z,9.70
2018-12-22T04:05:46.455Z,9.80
2018-12-22T04:10:49.955Z,9.80
2018-12-22T04:15:53.792Z,10.00
2018-12-22T04:20:57.277Z,9.80
2018-12-22T04:26:01.170Z,9.80
2018-12-22T04:31:04.853Z,10.10
2018-12-22T04:36:09.505Z,10.20
2018-12-22T04:41:13.461Z,10.10
2018-12-22T04:46:17.013Z,9.90
2018-12-22T04:51:21.177Z,9.90
2018-12-22T04:56:25.082Z,9.90
2018-12-22T05:01:29.223Z,9.70
2018-12-22T05:06:33.315Z,9.70
2018-12-22T05:11:36.964Z,9.80
2018-12-22T05:16:40.411Z,10.00
2018-12-22T05:21:43.869Z,10.00
2018-12-22T05:26:47.395Z,10.20
2018-12-22T05:31:50.866Z,10.20
2018-12-22T05:36:54.335Z,10.40
2018-12-22T05:41:57.807Z,10.30
2018-12-22T05:47:01.295Z,10.20
2018-12-22T05:52:04.918Z,10.10
2018-12-22T05:57:08.413Z,10.00
2018-12-22T06:02:11.928Z,10.10
2018-12-22T06:07:15.438Z,10.20
2018-12-22T06:12:19.458Z,10.30
2018-12-22T06:17:23.190Z,10.30
2018-12-22T06:22:26.900Z,10.30
2018-12-22T06:27:30.593Z,10.30
2018-12-22T06:32:34.325Z,10.20
2018-12-22T06:37:37.874Z,10.10
2018-12-22T06:42:41.668Z,10.00
2018-12-22T06:47:45.248Z,9.90
2018-12-22T06:52:49.858Z,9.70
2018-12-22T06:57:54.088Z,9.60
2018-12-22T07:02:58.122Z,9.60
2018-12-22T07:08:01.925Z,9.40
2018-12-22T07:13:05.692Z,9.30
2018-12-22T07:18:09.430Z,9.30
2018-12-22T07:23:15.617Z,9.50
2018-12-22T07:28:20.292Z,9.60
2018-12-22T07:33:24.664Z,9.70
2018-12-22T07:38:28.777Z,9.60
2018-12-22T07:43:32.433Z,9.40
2018-12-22T07:48:36.003Z,9.20
2018-12-22T07:53:39.623Z,9.20
2018-12-22T07:58:43.397Z,9.00
2018-12-22T08:03:47.088Z,9.00
2018-12-22T08:08:50.901Z,8.90
2018-12-22T08:19:22.719Z,9.00
2018-12-22T08:24:26.516Z,9.10
2018-12-22T08:29:31.085Z,9.20
2018-12-22T08:34:35.125Z,9.20
2018-12-22T08:39:40.049Z,9.20
2018-12-22T08:44:43.553Z,9.20
2018-12-22T08:49:47.182Z,9.30
2018-12-22T08:54:50.662Z,9.40
2018-12-22T08:59:54.344Z,9.40
2018-12-22T09:04:57.820Z,9.30
2018-12-22T09:10:01.540Z,9.20
2018-12-22T09:15:06.509Z,9.20
2018-12-22T09:20:10.962Z,9.10
2018-12-22T09:25:15.171Z,9.00
2018-12-22T09:30:18.962Z,9.10
2018-12-22T09:35:23.099Z,9.10
2018-12-22T09:40:27.020Z,9.20
2018-12-22T09:45:30.757Z,9.30
2018-12-22T09:50:34.445Z,9.20
2018-12-22T09:55:38.113Z,9.00
2018-12-22T10:00:41.781Z,8.80
2018-12-22T10:05:46.004Z,8.70
2018-12-22T10:10:50.244Z,8.80
2018-12-22T10:15:54.738Z,8.90
2018-12-22T10:20:59.321Z,9.10
2018-12-22T10:26:03.012Z,9.20
2018-12-22T10:31:06.663Z,9.20
2018-12-22T10:36:13.288Z,9.30
2018-12-22T10:41:17.898Z,9.10
2018-12-22T10:46:21.999Z,8.90
2018-12-22T10:51:25.664Z,8.80
2018-12-22T10:56:29.206Z,8.70
2018-12-22T11:01:33.959Z,8.70
2018-12-22T11:06:38.056Z,8.60
2018-12-22T11:11:41.948Z,8.60
2018-12-22T11:16:45.905Z,8.50
2018-12-22T11:21:49.988Z,8.40
2018-12-22T11:26:53.552Z,8.40
2018-12-22T11:31:57.988Z,8.30
2018-12-22T11:37:01.896Z,8.40
2018-12-22T11:42:05.614Z,8.50
2018-12-22T11:47:19.198Z,8.80
2018-12-22T11:52:22.670Z,9.20
2018-12-22T11:57:26.252Z,9.50
2018-12-22T12:02:29.714Z,9.60
2018-12-22T12:07:33.371Z,9.40
2018-12-22T12:12:36.959Z,9.10
2018-12-22T12:17:51.774Z,9.30
2018-12-22T12:22:55.466Z,9.30
2018-12-22T12:27:59.104Z,9.20
2018-12-22T12:33:02.764Z,9.00
2018-12-22T12:38:06.350Z,9.00
2018-12-22T12:43:10.867Z,9.00
2018-12-22T12:48:14.750Z,9.00
2018-12-22T12:53:18.752Z,9.00
2018-12-22T12:58:22.640Z,8.90
2018-12-22T13:03:27.046Z,8.80
2018-12-22T13:08:30.829Z,8.80
2018-12-22T13:13:41.245Z,9.00
2018-12-22T13:18:44.796Z,9.40
2018-12-22T13:23:48.290Z,9.20
2018-12-22T13:28:51.930Z,9.00
2018-12-22T13:33:55.403Z,9.00
2018-12-22T13:39:10.193Z,8.90
2018-12-22T13:44:18.822Z,8.90
2018-12-22T13:54:59.974Z,8.70
2018-12-22T14:00:04.350Z,8.70
2018-12-22T14:05:10.281Z,8.60
2018-12-22T14:10:14.045Z,8.60
2018-12-22T14:15:20.372Z,8.60
2018-12-22T14:20:25.234Z,8.60
2018-12-22T14:25:30.843Z,8.50
2018-12-22T14:30:36.492Z,8.40
2018-12-22T14:35:48.837Z,8.30
2018-12-22T14:40:53.182Z,8.20
2018-12-22T14:45:58.006Z,8.20
2018-12-22T14:51:01.480Z,8.20
2018-12-22T14:56:05.598Z,8.10
2018-12-22T15:01:09.241Z,7.90
2018-12-22T15:06:12.831Z,8.00
2018-12-22T15:11:16.417Z,8.00
2018-12-22T15:16:20.897Z,7.90
2018-12-22T15:21:24.624Z,7.80
2018-12-22T15:26:28.912Z,7.90
2018-12-22T15:31:35.044Z,7.80
2018-12-22T15:36:45.014Z,7.90
2018-12-22T15:41:51.228Z,7.70
2018-12-22T15:46:55.876Z,7.50
2018-12-22T15:52:04.947Z,7.50
2018-12-22T15:57:09.689Z,7.50
2018-12-22T16:02:13.397Z,7.60
2018-12-22T16:07:16.897Z,7.60
2018-12-22T16:12:20.431Z,7.50
2018-12-22T16:17:24.174Z,7.50
2018-12-22T16:22:27.746Z,7.60
2018-12-22T16:27:32.418Z,7.70
2018-12-22T16:32:37.146Z,7.60
2018-12-22T16:37:55.207Z,7.60
2018-12-22T16:42:58.843Z,7.70
2018-12-22T16:48:02.967Z,7.60
2018-12-22T16:53:07.115Z,7.50
2018-12-22T16:58:33.604Z,7.40
2018-12-22T17:03:38.088Z,7.40
2018-12-22T17:08:42.292Z,7.50
2018-12-22T17:13:47.406Z,7.40
2018-12-22T17:18:52.866Z,7.50
2018-12-22T17:24:07.786Z,7.50
2018-12-22T17:29:17.446Z,7.40
2018-12-22T17:34:21.586Z,7.30
2018-12-22T17:39:25.334Z,7.30
2018-12-22T17:44:29.079Z,7.30
2018-12-22T17:49:33.495Z,7.40
2018-12-22T17:54:38.933Z,7.40
2018-12-22T17:59:43.402Z,7.40
2018-12-22T18:04:47.041Z,7.20
2018-12-22T18:09:50.511Z,7.00
2018-12-22T18:14:54.207Z,6.90
2018-12-22T18:19:57.729Z,6.80
2018-12-22T18:25:05.724Z,6.80
2018-12-22T18:30:10.984Z,6.90
2018-12-22T18:35:15.127Z,7.00
2018-12-22T18:40:21.071Z,7.10
2018-12-22T18:45:25.905Z,7.30
2018-12-22T18:50:29.551Z,7.50
2018-12-22T18:55:34.231Z,7.60
2018-12-22T19:00:38.011Z,7.60
2018-12-22T19:05:41.737Z,7.60
2018-12-22T19:11:00.875Z,7.50
2018-12-22T19:16:04.830Z,7.30
2018-12-22T19:21:08.293Z,7.10
2018-12-22T19:26:11.885Z,7.00
2018-12-22T19:31:15.444Z,7.10
2018-12-22T19:36:19.053Z,7.20
2018-12-22T19:41:22.662Z,7.20
2018-12-22T19:46:26.269Z,7.10
2018-12-22T19:51:30.906Z,7.10
2018-12-22T19:56:35.102Z,7.10
2018-12-22T20:01:39.145Z,7.10
2018-12-22T20:06:43.231Z,7.00
2018-12-22T20:11:47.615Z,7.00
2018-12-22T20:16:51.259Z,6.90
2018-12-22T20:21:55.171Z,6.70
2018-12-22T20:26:59.426Z,6.80
2018-12-22T20:32:03.370Z,6.80
2018-12-22T20:37:07.599Z,6.80
2018-12-22T20:42:11.908Z,6.80
2018-12-22T20:47:15.953Z,6.90
2018-12-22T20:52:19.489Z,6.90
2018-12-22T20:57:22.991Z,7.00
2018-12-22T21:02:27.469Z,7.10
2018-12-22T21:07:30.941Z,7.10
2018-12-22T21:12:34.738Z,7.30
2018-12-22T21:17:38.426Z,7.40
2018-12-22T21:22:42.352Z,7.50
2018-12-22T21:27:46.635Z,7.60
2018-12-22T21:32:50.648Z,7.60
2018-12-22T21:37:55.460Z,7.70
2018-12-22T21:42:59.317Z,7.90
2018-12-22T21:48:04.193Z,8.00
2018-12-22T21:53:08.729Z,8.00
2018-12-22T21:58:13.723Z,7.70
2018-12-22T22:03:18.036Z,7.60
2018-12-22T22:08:22.293Z,7.50
2018-12-22T22:13:26.889Z,7.50
2018-12-22T22:18:31.084Z,7.40
2018-12-22T22:23:35.428Z,7.40
2018-12-22T22:28:39.742Z,7.40
2018-12-22T22:33:44.510Z,7.30
2018-12-22T22:38:47.993Z,7.30
2018-12-22T22:43:51.471Z,7.20
2018-12-22T22:48:54.943Z,7.20
2018-12-22T22:53:58.577Z,7.00
2018-12-22T22:59:02.121Z,6.90
2018-12-22T23:04:05.816Z,7.00
2018-12-22T23:09:09.400Z,6.90
2018-12-22T23:14:13.191Z,7.00
2018-12-22T23:19:16.714Z,7.00
2018-12-22T23:24:20.238Z,7.00
2018-12-22T23:29:23.779Z,7.10
2018-12-22T23:34:27.226Z,7.10
2018-12-22T23:39:30.699Z,7.20
2018-12-22T23:44:34.221Z,7.10
2018-12-22T23:49:37.729Z,7.00
2018-12-22T23:54:41.210Z,7.00
2018-12-22T23:59:45.417Z,6.80
